sensor_id;sensor_type;location;lat;lon;timestamp;pressure;altitude;pressure_sealevel;temperature;humidity
70690;BME280;58267;51.156;17.044;2022-11-28T00:01:33;101080.48;;;7.60;41.00
70690;BME280;58267;51.156;17.044;2022-11-28T00:03:55;101074.83;;;7.69;40.94
70690;BME280;58267;51.156;17.044;2022-11-28T00:06:20;101072.09;;;7.88;40.99
70690;BME280;58267;51.156;17.044;2022-11-28T00:08:46;101074.07;;;7.63;41.20
70690;BME280;58267;51.156;17.044;2022-11-28T00:11:14;101070.71;;;7.38;41.52
70690;BME280;58267;51.156;17.044;2022-11-28T00:13:37;101061.45;;;7.52;41.65
70690;BME280;58267;51.156;17.044;2022-11-28T00:16:05;101053.87;;;7.46;41.70
70690;BME280;58267;51.156;17.044;2022-11-28T00:18:28;101052.54;;;7.19;41.71
70690;BME280;58267;51.156;17.044;2022-11-28T00:20:58;101047.14;;;7.37;42.21
70690;BME280;58267;51.156;17.044;2022-11-28T00:23:19;101046.13;;;7.21;41.87
70690;BME280;58267;51.156;17.044;2022-11-28T00:25:45;101038.98;;;7.63;41.48
70690;BME280;58267;51.156;17.044;2022-11-28T00:28:10;101040.64;;;7.38;41.87
70690;BME280;58267;51.156;17.044;2022-11-28T00:30:36;101035.18;;;7.66;41.22
70690;BME280;58267;51.156;17.044;2022-11-28T00:33:01;101032.52;;;7.87;41.34
70690;BME280;58267;51.156;17.044;2022-11-28T00:35:26;101037.65;;;7.39;41.36
70690;BME280;58267;51.156;17.044;2022-11-28T00:37:51;101038.37;;;7.23;41.56
70690;BME280;58267;51.156;17.044;2022-11-28T00:40:16;101041.10;;;7.30;41.21
70690;BME280;58267;51.156;17.044;2022-11-28T00:42:42;101039.80;;;7.52;41.16
70690;BME280;58267;51.156;17.044;2022-11-28T00:45:08;101034.97;;;7.34;41.36
70690;BME280;58267;51.156;17.044;2022-11-28T00:47:32;101034.85;;;7.32;40.96
70690;BME280;58267;51.156;17.044;2022-11-28T00:49:59;101035.48;;;7.16;41.01
70690;BME280;58267;51.156;17.044;2022-11-28T00:52:24;101035.30;;;7.29;40.80
70690;BME280;58267;51.156;17.044;2022-11-28T00:54:50;101029.53;;;7.43;40.46
70690;BME280;58267;51.156;17.044;2022-11-28T00:57:15;101029.56;;;7.24;41.08
70690;BME280;58267;51.156;17.044;2022-11-28T00:59:41;101031.56;;;7.29;40.91
70690;BME280;58267;51.156;17.044;2022-11-28T01:02:06;101027.17;;;7.30;41.01
70690;BME280;58267;51.156;17.044;2022-11-28T01:04:31;101022.17;;;6.87;41.38
70690;BME280;58267;51.156;17.044;2022-11-28T01:06:56;101022.14;;;7.05;41.49
70690;BME280;58267;51.156;17.044;2022-11-28T01:09:23;101022.19;;;7.29;41.36
70690;BME280;58267;51.156;17.044;2022-11-28T01:11:50;101017.87;;;6.59;41.78
70690;BME280;58267;51.156;17.044;2022-11-28T01:14:13;101016.91;;;6.70;42.09
70690;BME280;58267;51.156;17.044;2022-11-28T01:16:39;101015.38;;;7.07;41.77
70690;BME280;58267;51.156;17.044;2022-11-28T01:19:04;101011.42;;;6.58;41.76
70690;BME280;58267;51.156;17.044;2022-11-28T01:21:29;101012.30;;;7.11;41.33
70690;BME280;58267;51.156;17.044;2022-11-28T01:23:55;101006.42;;;6.74;41.33
70690;BME280;58267;51.156;17.044;2022-11-28T01:26:21;101002.13;;;6.70;41.29
70690;BME280;58267;51.156;17.044;2022-11-28T01:28:45;100996.53;;;7.12;41.06
70690;BME280;58267;51.156;17.044;2022-11-28T01:31:15;100990.45;;;6.48;42.28
70690;BME280;58267;51.156;17.044;2022-11-28T01:33:37;100990.85;;;6.43;41.72
70690;BME280;58267;51.156;17.044;2022-11-28T01:36:03;100984.79;;;6.55;41.59
70690;BME280;58267;51.156;17.044;2022-11-28T01:38:28;100981.04;;;6.65;41.47
70690;BME280;58267;51.156;17.044;2022-11-28T01:40:54;100976.61;;;6.55;41.42
70690;BME280;58267;51.156;17.044;2022-11-28T01:43:19;100972.43;;;6.48;41.14
70690;BME280;58267;51.156;17.044;2022-11-28T01:45:45;100974.20;;;6.34;41.64
70690;BME280;58267;51.156;17.044;2022-11-28T01:48:12;100973.81;;;5.96;42.47
70690;BME280;58267;51.156;17.044;2022-11-28T01:50:35;100972.92;;;6.09;41.97
70690;BME280;58267;51.156;17.044;2022-11-28T01:53:04;100965.28;;;6.26;41.62
70690;BME280;58267;51.156;17.044;2022-11-28T01:55:29;100965.42;;;5.88;42.29
70690;BME280;58267;51.156;17.044;2022-11-28T01:57:53;100962.55;;;5.43;42.43
70690;BME280;58267;51.156;17.044;2022-11-28T02:00:19;100961.43;;;5.46;42.19
70690;BME280;58267;51.156;17.044;2022-11-28T02:02:46;100955.82;;;5.45;42.02
70690;BME280;58267;51.156;17.044;2022-11-28T02:05:08;100954.30;;;5.35;42.35
70690;BME280;58267;51.156;17.044;2022-11-28T02:07:34;100955.49;;;5.49;41.95
70690;BME280;58267;51.156;17.044;2022-11-28T02:10:00;100953.10;;;5.52;41.94
70690;BME280;58267;51.156;17.044;2022-11-28T02:12:34;100950.39;;;5.57;41.74
70690;BME280;58267;51.156;17.044;2022-11-28T02:15:04;100945.58;;;5.65;42.07
70690;BME280;58267;51.156;17.044;2022-11-28T02:17:21;100938.68;;;6.12;41.48
70690;BME280;58267;51.156;17.044;2022-11-28T02:22:11;100929.67;;;5.67;41.62
70690;BME280;58267;51.156;17.044;2022-11-28T02:27:08;100924.58;;;5.43;42.27
70690;BME280;58267;51.156;17.044;2022-11-28T02:29:37;100925.68;;;5.24;42.11
70690;BME280;58267;51.156;17.044;2022-11-28T02:32:06;100928.96;;;5.53;42.20
70690;BME280;58267;51.156;17.044;2022-11-28T02:34:19;100926.70;;;5.37;42.39
70690;BME280;58267;51.156;17.044;2022-11-28T02:36:46;100926.18;;;5.31;42.48
70690;BME280;58267;51.156;17.044;2022-11-28T02:39:12;100923.16;;;4.66;42.69
70690;BME280;58267;51.156;17.044;2022-11-28T02:41:36;100924.52;;;4.91;43.14
70690;BME280;58267;51.156;17.044;2022-11-28T02:44:02;100924.50;;;5.08;42.97
70690;BME280;58267;51.156;17.044;2022-11-28T02:46:27;100926.69;;;4.84;43.26
70690;BME280;58267;51.156;17.044;2022-11-28T02:48:51;100922.69;;;5.10;42.98
70690;BME280;58267;51.156;17.044;2022-11-28T02:51:19;100923.68;;;5.33;42.56
70690;BME280;58267;51.156;17.044;2022-11-28T02:53:41;100923.55;;;5.26;42.77
70690;BME280;58267;51.156;17.044;2022-11-28T02:56:08;100924.44;;;5.25;42.74
70690;BME280;58267;51.156;17.044;2022-11-28T02:58:31;100926.10;;;5.32;42.64
70690;BME280;58267;51.156;17.044;2022-11-28T03:00:56;100920.12;;;4.90;43.26
70690;BME280;58267;51.156;17.044;2022-11-28T03:05:54;100923.40;;;5.02;43.39
70690;BME280;58267;51.156;17.044;2022-11-28T03:08:24;100921.00;;;5.20;43.04
70690;BME280;58267;51.156;17.044;2022-11-28T03:10:42;100920.78;;;5.12;43.28
70690;BME280;58267;51.156;17.044;2022-11-28T03:13:10;100920.36;;;5.21;42.88
70690;BME280;58267;51.156;17.044;2022-11-28T03:15:33;100918.89;;;5.00;43.28
70690;BME280;58267;51.156;17.044;2022-11-28T03:18:01;100917.04;;;5.29;42.84
70690;BME280;58267;51.156;17.044;2022-11-28T03:20:22;100908.75;;;4.88;43.12
70690;BME280;58267;51.156;17.044;2022-11-28T03:22:57;100908.06;;;4.98;43.31
70690;BME280;58267;51.156;17.044;2022-11-28T03:25:18;100909.13;;;4.77;43.75
70690;BME280;58267;51.156;17.044;2022-11-28T03:27:44;100908.59;;;5.01;43.33
70690;BME280;58267;51.156;17.044;2022-11-28T03:30:10;100907.13;;;4.94;43.63
70690;BME280;58267;51.156;17.044;2022-11-28T03:32:31;100908.36;;;5.02;43.55
70690;BME280;58267;51.156;17.044;2022-11-28T03:34:58;100909.73;;;5.14;43.50
70690;BME280;58267;51.156;17.044;2022-11-28T03:37:22;100904.89;;;5.26;43.29
70690;BME280;58267;51.156;17.044;2022-11-28T03:39:54;100902.79;;;5.42;43.05
70690;BME280;58267;51.156;17.044;2022-11-28T03:42:14;100902.43;;;5.25;43.47
70690;BME280;58267;51.156;17.044;2022-11-28T03:44:42;100897.67;;;5.19;43.55
70690;BME280;58267;51.156;17.044;2022-11-28T03:47:04;100892.16;;;5.33;43.44
70690;BME280;58267;51.156;17.044;2022-11-28T03:49:31;100889.95;;;5.44;43.34
70690;BME280;58267;51.156;17.044;2022-11-28T03:51:55;100886.42;;;5.48;43.25
70690;BME280;58267;51.156;17.044;2022-11-28T03:54:23;100883.08;;;5.63;42.91
70690;BME280;58267;51.156;17.044;2022-11-28T03:56:48;100882.36;;;5.63;42.94
70690;BME280;58267;51.156;17.044;2022-11-28T03:59:11;100882.04;;;5.48;43.26
70690;BME280;58267;51.156;17.044;2022-11-28T04:01:41;100879.10;;;5.53;43.10
70690;BME280;58267;51.156;17.044;2022-11-28T04:04:09;100877.23;;;5.21;43.13
70690;BME280;58267;51.156;17.044;2022-11-28T04:06:28;100877.00;;;5.30;43.11
70690;BME280;58267;51.156;17.044;2022-11-28T04:08:56;100876.55;;;5.58;43.13
70690;BME280;58267;51.156;17.044;2022-11-28T04:11:19;100879.59;;;5.08;43.04
70690;BME280;58267;51.156;17.044;2022-11-28T04:13:46;100872.12;;;5.18;43.01
70690;BME280;58267;51.156;17.044;2022-11-28T04:16:11;100871.84;;;5.77;42.98
70690;BME280;58267;51.156;17.044;2022-11-28T04:18:39;100869.70;;;5.15;43.15
70690;BME280;58267;51.156;17.044;2022-11-28T04:21:04;100867.75;;;5.22;43.08
70690;BME280;58267;51.156;17.044;2022-11-28T04:23:26;100865.58;;;5.56;43.07
70690;BME280;58267;51.156;17.044;2022-11-28T04:25:53;100862.88;;;5.31;42.90
70690;BME280;58267;51.156;17.044;2022-11-28T04:28:17;100861.42;;;5.37;42.95
70690;BME280;58267;51.156;17.044;2022-11-28T04:30:41;100859.01;;;5.87;42.89
70690;BME280;58267;51.156;17.044;2022-11-28T04:33:07;100858.29;;;5.35;42.94
70690;BME280;58267;51.156;17.044;2022-11-28T04:35:32;100859.36;;;5.34;42.90
70690;BME280;58267;51.156;17.044;2022-11-28T04:37:58;100857.90;;;5.70;42.77
70690;BME280;58267;51.156;17.044;2022-11-28T04:40:23;100861.25;;;5.76;43.12
70690;BME280;58267;51.156;17.044;2022-11-28T04:42:50;100858.20;;;5.94;42.84
70690;BME280;58267;51.156;17.044;2022-11-28T04:45:16;100860.78;;;5.64;42.96
70690;BME280;58267;51.156;17.044;2022-11-28T04:47:38;100863.62;;;5.42;42.89
70690;BME280;58267;51.156;17.044;2022-11-28T04:50:04;100860.76;;;5.32;43.21
70690;BME280;58267;51.156;17.044;2022-11-28T04:52:33;100858.22;;;5.64;43.16
70690;BME280;58267;51.156;17.044;2022-11-28T04:54:59;100854.85;;;5.72;42.99
70690;BME280;58267;51.156;17.044;2022-11-28T04:57:25;100855.63;;;5.84;43.20
70690;BME280;58267;51.156;17.044;2022-11-28T04:59:46;100856.32;;;5.20;43.43
70690;BME280;58267;51.156;17.044;2022-11-28T05:02:11;100855.09;;;5.33;43.24
70690;BME280;58267;51.156;17.044;2022-11-28T05:04:36;100854.90;;;5.37;43.28
70690;BME280;58267;51.156;17.044;2022-11-28T05:07:01;100853.07;;;5.67;43.40
70690;BME280;58267;51.156;17.044;2022-11-28T05:09:26;100858.16;;;5.54;43.21
70690;BME280;58267;51.156;17.044;2022-11-28T05:11:52;100857.94;;;5.62;42.97
70690;BME280;58267;51.156;17.044;2022-11-28T05:14:18;100855.48;;;5.84;42.99
70690;BME280;58267;51.156;17.044;2022-11-28T05:16:43;100854.81;;;5.59;42.92
70690;BME280;58267;51.156;17.044;2022-11-28T05:19:08;100853.74;;;6.18;42.73
70690;BME280;58267;51.156;17.044;2022-11-28T05:21:34;100853.78;;;5.65;42.73
70690;BME280;58267;51.156;17.044;2022-11-28T05:23:59;100859.14;;;5.87;42.80
70690;BME280;58267;51.156;17.044;2022-11-28T05:26:25;100863.46;;;5.71;42.77
70690;BME280;58267;51.156;17.044;2022-11-28T05:28:52;100863.27;;;5.73;42.66
70690;BME280;58267;51.156;17.044;2022-11-28T05:31:17;100860.97;;;5.69;42.79
70690;BME280;58267;51.156;17.044;2022-11-28T05:33:43;100857.72;;;5.97;42.77
70690;BME280;58267;51.156;17.044;2022-11-28T05:36:10;100858.09;;;5.69;42.86
70690;BME280;58267;51.156;17.044;2022-11-28T05:38:33;100859.12;;;5.68;42.98
70690;BME280;58267;51.156;17.044;2022-11-28T05:40:58;100856.29;;;5.67;42.97
70690;BME280;58267;51.156;17.044;2022-11-28T05:43:24;100856.57;;;5.23;43.51
70690;BME280;58267;51.156;17.044;2022-11-28T05:45:49;100850.26;;;5.52;43.44
70690;BME280;58267;51.156;17.044;2022-11-28T05:48:15;100851.20;;;5.57;43.55
70690;BME280;58267;51.156;17.044;2022-11-28T05:50:41;100845.73;;;5.34;43.43
70690;BME280;58267;51.156;17.044;2022-11-28T05:53:06;100847.26;;;5.18;43.65
70690;BME280;58267;51.156;17.044;2022-11-28T05:55:32;100848.84;;;5.15;43.74
70690;BME280;58267;51.156;17.044;2022-11-28T05:57:58;100845.86;;;5.51;43.64
70690;BME280;58267;51.156;17.044;2022-11-28T06:00:24;100838.76;;;5.30;43.62
70690;BME280;58267;51.156;17.044;2022-11-28T06:02:49;100837.43;;;5.50;43.76
70690;BME280;58267;51.156;17.044;2022-11-28T06:05:15;100833.92;;;5.59;43.65
70690;BME280;58267;51.156;17.044;2022-11-28T06:07:40;100833.15;;;5.30;43.75
70690;BME280;58267;51.156;17.044;2022-11-28T06:10:06;100829.36;;;5.36;43.66
70690;BME280;58267;51.156;17.044;2022-11-28T06:12:30;100831.30;;;5.64;43.74
70690;BME280;58267;51.156;17.044;2022-11-28T06:14:56;100830.70;;;5.48;43.63
70690;BME280;58267;51.156;17.044;2022-11-28T06:17:22;100832.60;;;5.78;43.61
70690;BME280;58267;51.156;17.044;2022-11-28T06:19:47;100829.41;;;5.70;43.76
70690;BME280;58267;51.156;17.044;2022-11-28T06:22:17;100826.62;;;6.04;43.68
70690;BME280;58267;51.156;17.044;2022-11-28T06:24:42;100823.97;;;5.39;43.83
70690;BME280;58267;51.156;17.044;2022-11-28T06:27:08;100820.80;;;5.73;43.72
70690;BME280;58267;51.156;17.044;2022-11-28T06:29:34;100817.66;;;5.31;43.92
70690;BME280;58267;51.156;17.044;2022-11-28T06:31:59;100813.75;;;5.43;43.70
70690;BME280;58267;51.156;17.044;2022-11-28T06:34:25;100815.02;;;5.34;43.83
70690;BME280;58267;51.156;17.044;2022-11-28T06:36:49;100816.42;;;5.41;44.12
70690;BME280;58267;51.156;17.044;2022-11-28T06:39:16;100812.65;;;5.12;44.89
70690;BME280;58267;51.156;17.044;2022-11-28T06:41:42;100815.91;;;5.23;44.18
70690;BME280;58267;51.156;17.044;2022-11-28T06:44:07;100816.22;;;5.43;43.86
70690;BME280;58267;51.156;17.044;2022-11-28T06:46:32;100817.11;;;5.52;43.87
70690;BME280;58267;51.156;17.044;2022-11-28T06:48:57;100814.91;;;5.62;43.66
70690;BME280;58267;51.156;17.044;2022-11-28T06:51:27;100814.14;;;5.69;43.66
70690;BME280;58267;51.156;17.044;2022-11-28T06:53:53;100812.66;;;5.69;43.78
70690;BME280;58267;51.156;17.044;2022-11-28T06:56:19;100813.80;;;5.85;43.50
70690;BME280;58267;51.156;17.044;2022-11-28T06:58:46;100813.80;;;6.14;43.54
70690;BME280;58267;51.156;17.044;2022-11-28T07:01:13;100815.99;;;5.86;43.63
70690;BME280;58267;51.156;17.044;2022-11-28T07:03:37;100810.69;;;5.99;43.36
70690;BME280;58267;51.156;17.044;2022-11-28T07:06:03;100819.58;;;5.83;43.54
70690;BME280;58267;51.156;17.044;2022-11-28T07:08:28;100815.48;;;5.89;43.55
70690;BME280;58267;51.156;17.044;2022-11-28T07:10:54;100814.60;;;5.90;43.61
70690;BME280;58267;51.156;17.044;2022-11-28T07:13:19;100808.75;;;6.08;43.38
70690;BME280;58267;51.156;17.044;2022-11-28T07:15:47;100808.23;;;6.15;43.21
70690;BME280;58267;51.156;17.044;2022-11-28T07:18:11;100808.74;;;6.06;43.09
70690;BME280;58267;51.156;17.044;2022-11-28T07:20:36;100809.08;;;5.97;43.33
70690;BME280;58267;51.156;17.044;2022-11-28T07:23:01;100816.13;;;5.80;43.87
70690;BME280;58267;51.156;17.044;2022-11-28T07:25:27;100808.44;;;6.04;43.21
70690;BME280;58267;51.156;17.044;2022-11-28T07:27:55;100805.83;;;6.04;43.22
70690;BME280;58267;51.156;17.044;2022-11-28T07:30:21;100802.28;;;5.93;43.14
70690;BME280;58267;51.156;17.044;2022-11-28T07:32:46;100797.58;;;5.93;43.31
70690;BME280;58267;51.156;17.044;2022-11-28T07:35:12;100798.03;;;6.18;43.37
70690;BME280;58267;51.156;17.044;2022-11-28T07:37:37;100796.71;;;6.40;43.39
70690;BME280;58267;51.156;17.044;2022-11-28T07:40:04;100798.62;;;6.33;43.92
70690;BME280;58267;51.156;17.044;2022-11-28T07:42:28;100799.71;;;6.51;43.75
70690;BME280;58267;51.156;17.044;2022-11-28T07:44:54;100797.32;;;6.44;43.36
70690;BME280;58267;51.156;17.044;2022-11-28T07:47:19;100790.87;;;6.70;43.14
70690;BME280;58267;51.156;17.044;2022-11-28T07:49:45;100794.27;;;6.95;42.98
70690;BME280;58267;51.156;17.044;2022-11-28T07:52:11;100795.71;;;6.40;43.46
70690;BME280;58267;51.156;17.044;2022-11-28T07:54:36;100791.99;;;6.80;42.80
70690;BME280;58267;51.156;17.044;2022-11-28T07:57:02;100793.41;;;6.16;42.92
70690;BME280;58267;51.156;17.044;2022-11-28T07:59:27;100792.54;;;6.64;42.92
70690;BME280;58267;51.156;17.044;2022-11-28T08:01:52;100787.97;;;6.74;42.88
70690;BME280;58267;51.156;17.044;2022-11-28T08:04:17;100788.07;;;6.92;42.29
70690;BME280;58267;51.156;17.044;2022-11-28T08:06:42;100784.69;;;6.50;42.23
70690;BME280;58267;51.156;17.044;2022-11-28T08:09:09;100782.10;;;7.20;41.95
70690;BME280;58267;51.156;17.044;2022-11-28T08:11:34;100779.87;;;6.91;42.18
70690;BME280;58267;51.156;17.044;2022-11-28T08:13:59;100782.81;;;7.11;42.02
70690;BME280;58267;51.156;17.044;2022-11-28T08:16:26;100781.95;;;6.57;42.45
70690;BME280;58267;51.156;17.044;2022-11-28T08:18:50;100781.74;;;6.86;42.26
70690;BME280;58267;51.156;17.044;2022-11-28T08:21:17;100778.13;;;6.87;41.75
70690;BME280;58267;51.156;17.044;2022-11-28T08:23:41;100775.53;;;6.64;42.16
70690;BME280;58267;51.156;17.044;2022-11-28T08:26:09;100773.88;;;7.07;41.84
70690;BME280;58267;51.156;17.044;2022-11-28T08:28:33;100773.63;;;6.62;42.14
70690;BME280;58267;51.156;17.044;2022-11-28T08:30:58;100770.97;;;6.91;42.13
70690;BME280;58267;51.156;17.044;2022-11-28T08:33:23;100770.02;;;7.02;41.90
70690;BME280;58267;51.156;17.044;2022-11-28T08:35:49;100766.45;;;6.91;42.22
70690;BME280;58267;51.156;17.044;2022-11-28T08:38:14;100762.13;;;6.96;41.80
70690;BME280;58267;51.156;17.044;2022-11-28T08:40:40;100764.82;;;6.66;41.93
70690;BME280;58267;51.156;17.044;2022-11-28T08:43:05;100764.52;;;6.59;42.15
70690;BME280;58267;51.156;17.044;2022-11-28T08:45:31;100764.13;;;6.79;42.05
70690;BME280;58267;51.156;17.044;2022-11-28T08:47:57;100757.10;;;6.78;42.02
70690;BME280;58267;51.156;17.044;2022-11-28T08:50:21;100753.56;;;6.64;41.87
70690;BME280;58267;51.156;17.044;2022-11-28T08:52:47;100749.18;;;6.53;42.70
70690;BME280;58267;51.156;17.044;2022-11-28T08:55:13;100752.44;;;6.30;42.60
70690;BME280;58267;51.156;17.044;2022-11-28T08:57:39;100748.98;;;6.80;42.28
70690;BME280;58267;51.156;17.044;2022-11-28T09:00:06;100747.01;;;6.78;41.95
70690;BME280;58267;51.156;17.044;2022-11-28T09:02:30;100745.79;;;6.98;41.61
70690;BME280;58267;51.156;17.044;2022-11-28T09:04:55;100740.02;;;7.21;41.38
70690;BME280;58267;51.156;17.044;2022-11-28T09:07:21;100742.52;;;6.95;41.35
70690;BME280;58267;51.156;17.044;2022-11-28T09:09:46;100742.67;;;6.82;41.35
70690;BME280;58267;51.156;17.044;2022-11-28T09:12:11;100739.09;;;6.86;41.19
70690;BME280;58267;51.156;17.044;2022-11-28T09:14:37;100735.21;;;6.92;41.16
70690;BME280;58267;51.156;17.044;2022-11-28T09:17:03;100728.68;;;6.61;41.32
70690;BME280;58267;51.156;17.044;2022-11-28T09:19:28;100731.33;;;6.95;41.11
70690;BME280;58267;51.156;17.044;2022-11-28T09:21:54;100728.84;;;7.02;41.23
70690;BME280;58267;51.156;17.044;2022-11-28T09:24:19;100726.45;;;7.26;41.53
70690;BME280;58267;51.156;17.044;2022-11-28T09:26:44;100724.35;;;7.12;41.33
70690;BME280;58267;51.156;17.044;2022-11-28T09:29:10;100726.45;;;7.30;41.46
70690;BME280;58267;51.156;17.044;2022-11-28T09:31:35;100725.98;;;7.30;41.42
70690;BME280;58267;51.156;17.044;2022-11-28T09:34:01;100727.87;;;7.48;41.41
70690;BME280;58267;51.156;17.044;2022-11-28T09:36:26;100725.59;;;7.34;41.33
70690;BME280;58267;51.156;17.044;2022-11-28T09:38:51;100721.18;;;7.19;41.39
70690;BME280;58267;51.156;17.044;2022-11-28T09:41:27;100719.71;;;7.59;41.10
70690;BME280;58267;51.156;17.044;2022-11-28T09:43:43;100719.45;;;7.40;41.03
70690;BME280;58267;51.156;17.044;2022-11-28T09:46:11;100716.79;;;7.68;41.02
70690;BME280;58267;51.156;17.044;2022-11-28T09:48:34;100713.25;;;7.55;41.24
70690;BME280;58267;51.156;17.044;2022-11-28T09:51:04;100707.82;;;7.52;41.48
70690;BME280;58267;51.156;17.044;2022-11-28T09:53:26;100704.56;;;7.42;41.65
70690;BME280;58267;51.156;17.044;2022-11-28T09:55:51;100694.71;;;7.76;41.41
70690;BME280;58267;51.156;17.044;2022-11-28T09:58:17;100692.19;;;7.55;41.46
70690;BME280;58267;51.156;17.044;2022-11-28T10:00:44;100692.59;;;7.78;40.88
70690;BME280;58267;51.156;17.044;2022-11-28T10:03:24;100688.93;;;8.16;40.57
70690;BME280;58267;51.156;17.044;2022-11-28T10:05:35;100684.15;;;8.22;40.83
70690;BME280;58267;51.156;17.044;2022-11-28T10:08:10;100676.25;;;8.07;40.27
70690;BME280;58267;51.156;17.044;2022-11-28T10:10:28;100677.07;;;8.18;39.89
70690;BME280;58267;51.156;17.044;2022-11-28T10:12:51;100671.07;;;8.16;39.95
70690;BME280;58267;51.156;17.044;2022-11-28T10:15:24;100668.56;;;8.46;39.64
70690;BME280;58267;51.156;17.044;2022-11-28T10:17:44;100668.45;;;8.53;39.45
70690;BME280;58267;51.156;17.044;2022-11-28T10:20:08;100667.44;;;8.62;39.69
70690;BME280;58267;51.156;17.044;2022-11-28T10:22:34;100667.48;;;8.37;39.63
70690;BME280;58267;51.156;17.044;2022-11-28T10:24:56;100667.27;;;8.57;39.53
70690;BME280;58267;51.156;17.044;2022-11-28T10:27:20;100664.03;;;8.64;39.36
70690;BME280;58267;51.156;17.044;2022-11-28T10:29:48;100660.89;;;8.31;39.99
70690;BME280;58267;51.156;17.044;2022-11-28T10:32:14;100654.83;;;8.48;39.77
70690;BME280;58267;51.156;17.044;2022-11-28T10:34:41;100651.99;;;8.84;39.33
70690;BME280;58267;51.156;17.044;2022-11-28T10:37:05;100658.53;;;8.39;39.75
70690;BME280;58267;51.156;17.044;2022-11-28T10:39:28;100653.85;;;8.79;39.59
70690;BME280;58267;51.156;17.044;2022-11-28T10:41:58;100649.14;;;8.74;39.21
70690;BME280;58267;51.156;17.044;2022-11-28T10:44:24;100649.97;;;8.95;39.09
70690;BME280;58267;51.156;17.044;2022-11-28T10:46:53;100646.14;;;8.68;39.28
70690;BME280;58267;51.156;17.044;2022-11-28T10:49:24;100642.34;;;9.09;38.86
70690;BME280;58267;51.156;17.044;2022-11-28T10:51:44;100635.73;;;9.13;38.65
70690;BME280;58267;51.156;17.044;2022-11-28T10:54:14;100630.44;;;9.35;38.18
70690;BME280;58267;51.156;17.044;2022-11-28T10:56:34;100628.86;;;9.39;38.01
70690;BME280;58267;51.156;17.044;2022-11-28T10:58:57;100627.11;;;9.11;37.96
70690;BME280;58267;51.156;17.044;2022-11-28T11:01:19;100624.79;;;9.29;37.80
70690;BME280;58267;51.156;17.044;2022-11-28T11:03:44;100619.46;;;9.27;37.71
70690;BME280;58267;51.156;17.044;2022-11-28T11:06:10;100616.71;;;9.58;37.57
70690;BME280;58267;51.156;17.044;2022-11-28T11:08:37;100617.00;;;9.58;37.46
70690;BME280;58267;51.156;17.044;2022-11-28T11:11:03;100615.27;;;9.38;37.52
70690;BME280;58267;51.156;17.044;2022-11-28T11:13:27;100613.06;;;9.77;37.32
70690;BME280;58267;51.156;17.044;2022-11-28T11:15:57;100610.59;;;9.98;37.37
70690;BME280;58267;51.156;17.044;2022-11-28T11:18:22;100606.48;;;9.87;37.26
70690;BME280;58267;51.156;17.044;2022-11-28T11:20:43;100604.28;;;9.58;37.43
70690;BME280;58267;51.156;17.044;2022-11-28T11:23:14;100601.03;;;9.79;37.44
70690;BME280;58267;51.156;17.044;2022-11-28T11:25:34;100600.54;;;9.54;37.25
70690;BME280;58267;51.156;17.044;2022-11-28T11:28:01;100599.35;;;9.63;37.16
70690;BME280;58267;51.156;17.044;2022-11-28T11:30:27;100598.58;;;9.66;37.10
70690;BME280;58267;51.156;17.044;2022-11-28T11:32:50;100597.35;;;9.82;37.11
70690;BME280;58267;51.156;17.044;2022-11-28T11:35:19;100594.21;;;9.78;37.26
70690;BME280;58267;51.156;17.044;2022-11-28T11:37:40;100593.43;;;9.80;36.70
70690;BME280;58267;51.156;17.044;2022-11-28T11:40:20;100587.16;;;9.63;36.92
70690;BME280;58267;51.156;17.044;2022-11-28T11:42:31;100582.31;;;9.44;37.28
70690;BME280;58267;51.156;17.044;2022-11-28T11:45:21;100584.05;;;9.47;37.33
70690;BME280;58267;51.156;17.044;2022-11-28T11:49:48;100578.38;;;9.53;37.08
70690;BME280;58267;51.156;17.044;2022-11-28T11:52:17;100575.65;;;9.71;36.98
70690;BME280;58267;51.156;17.044;2022-11-28T11:54:38;100572.92;;;9.87;36.97
70690;BME280;58267;51.156;17.044;2022-11-28T11:57:04;100573.05;;;9.87;37.30
70690;BME280;58267;51.156;17.044;2022-11-28T11:59:32;100571.19;;;9.93;37.07
70690;BME280;58267;51.156;17.044;2022-11-28T12:02:00;100567.17;;;9.84;36.75
70690;BME280;58267;51.156;17.044;2022-11-28T12:04:25;100567.77;;;9.96;36.80
70690;BME280;58267;51.156;17.044;2022-11-28T12:06:48;100561.95;;;9.62;36.80
70690;BME280;58267;51.156;17.044;2022-11-28T12:09:18;100562.11;;;9.42;37.06
70690;BME280;58267;51.156;17.044;2022-11-28T12:11:39;100562.04;;;9.04;36.88
70690;BME280;58267;51.156;17.044;2022-11-28T12:14:10;100555.18;;;9.36;36.98
70690;BME280;58267;51.156;17.044;2022-11-28T12:16:39;100551.00;;;9.67;36.83
70690;BME280;58267;51.156;17.044;2022-11-28T12:18:59;100550.00;;;9.61;36.65
70690;BME280;58267;51.156;17.044;2022-11-28T12:21:24;100546.97;;;9.50;36.65
70690;BME280;58267;51.156;17.044;2022-11-28T12:23:56;100552.87;;;9.77;36.42
70690;BME280;58267;51.156;17.044;2022-11-28T12:26:16;100552.40;;;9.57;36.43
70690;BME280;58267;51.156;17.044;2022-11-28T12:28:46;100554.90;;;9.48;36.74
70690;BME280;58267;51.156;17.044;2022-11-28T12:31:09;100557.00;;;9.52;36.43
70690;BME280;58267;51.156;17.044;2022-11-28T12:33:36;100556.44;;;9.72;36.22
70690;BME280;58267;51.156;17.044;2022-11-28T12:36:03;100557.74;;;9.53;35.98
70690;BME280;58267;51.156;17.044;2022-11-28T12:38:25;100557.31;;;9.78;36.01
70690;BME280;58267;51.156;17.044;2022-11-28T12:40:53;100558.41;;;9.85;35.96
70690;BME280;58267;51.156;17.044;2022-11-28T12:43:19;100553.83;;;9.66;36.10
70690;BME280;58267;51.156;17.044;2022-11-28T12:45:39;100553.59;;;9.68;36.22
70690;BME280;58267;51.156;17.044;2022-11-28T12:48:07;100550.85;;;9.49;36.24
70690;BME280;58267;51.156;17.044;2022-11-28T12:50:29;100551.48;;;9.62;36.49